createdAt,value
2022-09-02T00:00:17.369Z,0.00
2022-09-02T00:01:17.368Z,0.00
2022-09-02T00:02:17.490Z,0.00
2022-09-02T00:03:17.530Z,0.00
2022-09-02T00:04:17.347Z,0.00
2022-09-02T00:05:17.338Z,0.00
2022-09-02T00:06:17.333Z,0.00
2022-09-02T00:07:17.329Z,0.00
2022-09-02T00:08:17.322Z,0.00
2022-09-02T00:09:17.318Z,0.00
2022-09-02T00:10:17.307Z,0.00
2022-09-02T00:11:17.306Z,0.00
2022-09-02T00:12:17.295Z,0.00
2022-09-02T00:13:17.290Z,0.00
2022-09-02T00:14:17.284Z,0.00
2022-09-02T00:15:17.280Z,0.00
2022-09-02T00:16:17.415Z,0.00
2022-09-02T00:17:17.265Z,0.00
2022-09-02T00:18:18.291Z,0.00
2022-09-02T00:19:17.254Z,0.00
2022-09-02T00:20:17.247Z,0.00
2022-09-02T00:21:17.241Z,0.00
2022-09-02T00:22:17.234Z,0.00
2022-09-02T00:23:17.241Z,0.00
2022-09-02T00:24:17.221Z,0.00
2022-09-02T00:25:17.216Z,0.00
2022-09-02T00:26:17.210Z,0.00
2022-09-02T00:27:17.203Z,0.00
2022-09-02T00:28:17.201Z,0.00
2022-09-02T00:29:17.191Z,0.00
2022-09-02T00:30:17.186Z,0.00
2022-09-02T00:31:17.194Z,0.00
2022-09-02T00:32:17.177Z,0.00
2022-09-02T00:33:17.201Z,0.00
2022-09-02T00:34:17.160Z,0.00
2022-09-02T00:35:17.150Z,0.00
2022-09-02T00:36:17.145Z,0.00
2022-09-02T00:37:17.141Z,0.00
2022-09-02T00:38:17.135Z,0.00
2022-09-02T00:39:17.126Z,0.00
2022-09-02T00:40:17.171Z,0.00
2022-09-02T00:41:17.121Z,0.00
2022-09-02T00:42:17.109Z,0.00
2022-09-02T00:43:17.138Z,0.00
2022-09-02T00:44:17.096Z,0.00
2022-09-02T00:45:17.090Z,0.00
2022-09-02T00:46:17.083Z,0.00
2022-09-02T00:47:17.078Z,0.00
2022-09-02T00:48:17.072Z,0.00
2022-09-02T00:49:17.067Z,0.00
2022-09-02T00:50:17.060Z,0.00
2022-09-02T00:51:17.057Z,0.00
2022-09-02T00:52:17.310Z,0.00
2022-09-02T00:53:17.108Z,0.00
2022-09-02T00:54:17.033Z,0.00
2022-09-02T00:55:17.031Z,0.00
2022-09-02T00:56:17.023Z,0.00
2022-09-02T00:57:17.013Z,0.00
2022-09-02T00:58:17.010Z,0.00
2022-09-02T00:59:17.003Z,0.00
2022-09-02T01:00:16.996Z,0.00
2022-09-02T01:01:17.206Z,0.00
2022-09-02T01:02:17.121Z,0.00
2022-09-02T01:03:16.980Z,0.00
2022-09-02T01:04:16.975Z,0.00
2022-09-02T01:05:16.966Z,0.00
2022-09-02T01:06:16.955Z,0.00
2022-09-02T01:07:16.954Z,0.00
2022-09-02T01:08:16.948Z,0.00
2022-09-02T01:09:16.943Z,0.00
2022-09-02T01:10:16.937Z,0.00
2022-09-02T01:11:16.934Z,0.00
2022-09-02T01:12:16.923Z,0.00
2022-09-02T01:13:16.920Z,0.00
2022-09-02T01:14:16.921Z,0.00
2022-09-02T01:15:16.907Z,0.00
2022-09-02T01:16:16.942Z,0.00
2022-09-02T01:17:16.896Z,0.00
2022-09-02T01:18:16.888Z,0.00
2022-09-02T01:19:16.881Z,0.00
2022-09-02T01:20:16.875Z,0.00
2022-09-02T01:21:16.868Z,0.00
2022-09-02T01:22:16.863Z,0.00
2022-09-02T01:23:16.857Z,0.00
2022-09-02T01:24:16.852Z,0.00
2022-09-02T01:25:16.846Z,0.00
2022-09-02T01:26:16.838Z,0.00
2022-09-02T01:27:16.842Z,0.00
2022-09-02T01:28:16.824Z,0.00
2022-09-02T01:29:16.820Z,0.00
2022-09-02T01:30:16.820Z,0.00
2022-09-02T01:31:16.948Z,0.00
2022-09-02T01:32:16.808Z,0.00
2022-09-02T01:33:25.183Z,0.00
2022-09-02T01:35:20.771Z,0.00
2022-09-02T01:36:20.757Z,0.00
2022-09-02T01:38:24.741Z,0.00
2022-09-02T01:39:24.745Z,0.00
2022-09-02T01:41:28.729Z,0.00
2022-09-02T01:42:28.714Z,0.00
2022-09-02T01:44:21.635Z,0.00
2022-09-02T01:45:21.626Z,0.00
2022-09-02T01:47:14.728Z,0.00
2022-09-02T01:48:14.713Z,0.00
2022-09-02T01:50:07.819Z,0.00
2022-09-02T01:51:07.809Z,0.00
2022-09-02T01:53:11.815Z,0.00
2022-09-02T01:54:11.803Z,0.00
2022-09-02T01:56:04.919Z,0.00
2022-09-02T01:57:04.905Z,0.00
2022-09-02T01:59:08.903Z,0.00
2022-09-02T02:00:08.895Z,0.00
2022-09-02T02:02:02.097Z,0.00
2022-09-02T02:03:01.998Z,0.00
2022-09-02T02:04:54.908Z,0.00
2022-09-02T02:05:54.898Z,0.00
2022-09-02T02:07:58.896Z,0.00
2022-09-02T02:08:58.878Z,0.00
2022-09-02T02:11:02.917Z,0.00
2022-09-02T02:12:02.891Z,0.00
2022-09-02T02:13:55.810Z,0.00
2022-09-02T02:14:55.800Z,0.00
2022-09-02T02:16:59.786Z,0.00
2022-09-02T02:17:59.766Z,0.00
2022-09-02T02:20:03.983Z,0.00
2022-09-02T02:21:03.972Z,0.00
2022-09-02T02:23:07.989Z,0.00
2022-09-02T02:24:07.967Z,0.00
2022-09-02T02:26:11.959Z,0.00
2022-09-02T02:27:11.939Z,0.00
2022-09-02T02:29:15.938Z,0.00
2022-09-02T02:30:15.933Z,0.00
2022-09-02T02:32:19.927Z,0.00
2022-09-02T02:33:19.943Z,0.00
2022-09-02T02:35:23.890Z,0.00
2022-09-02T02:36:23.869Z,0.00
2022-09-02T02:38:27.853Z,0.00
2022-09-02T02:39:27.836Z,0.00
2022-09-02T02:41:31.814Z,0.00
2022-09-02T02:42:31.805Z,0.00
2022-09-02T02:44:24.699Z,0.00
2022-09-02T02:45:24.690Z,0.00
2022-09-02T02:47:17.823Z,0.00
2022-09-02T02:48:17.807Z,0.00
2022-09-02T02:50:10.911Z,0.00
2022-09-02T02:51:10.902Z,0.00
2022-09-02T02:53:15.007Z,0.00
2022-09-02T02:54:14.911Z,0.00
2022-09-02T02:56:08.014Z,0.00
2022-09-02T02:57:07.997Z,0.00
2022-09-02T02:59:11.971Z,0.00
2022-09-02T03:00:11.960Z,0.00
2022-09-02T03:02:15.992Z,0.00
2022-09-02T03:03:15.924Z,0.00
2022-09-02T03:05:19.908Z,0.00
2022-09-02T03:06:19.891Z,0.00
2022-09-02T03:08:12.987Z,0.00
2022-09-02T03:09:12.979Z,0.00
2022-09-02T03:11:16.977Z,0.00
2022-09-02T03:12:16.973Z,0.00
2022-09-02T03:14:09.872Z,0.00
2022-09-02T03:15:09.862Z,0.00
2022-09-02T03:17:13.856Z,0.00
2022-09-02T03:18:13.838Z,0.00
2022-09-02T03:20:17.845Z,0.00
2022-09-02T03:21:17.829Z,0.00
2022-09-02T03:23:21.916Z,0.00
2022-09-02T03:24:21.796Z,0.00
2022-09-02T03:26:14.899Z,0.00
2022-09-02T03:27:14.884Z,0.00
2022-09-02T03:29:18.869Z,0.00
2022-09-02T03:30:18.853Z,0.00
2022-09-02T03:32:22.898Z,0.00
2022-09-02T03:33:23.020Z,0.00
2022-09-02T03:35:26.878Z,0.00
2022-09-02T03:36:26.857Z,0.00
2022-09-02T03:38:30.840Z,0.00
2022-09-02T03:39:30.831Z,0.00
2022-09-02T03:41:34.812Z,0.00
2022-09-02T03:42:34.794Z,0.00
2022-09-02T03:44:27.714Z,0.00
2022-09-02T03:45:27.696Z,0.00
2022-09-02T03:47:31.670Z,0.00
2022-09-02T03:48:31.663Z,0.00
2022-09-02T03:50:35.637Z,0.00
2022-09-02T03:51:35.617Z,4.00
2022-09-02T03:53:39.584Z,4.00
2022-09-02T03:54:39.576Z,4.00
2022-09-02T03:56:43.555Z,8.00
2022-09-02T03:57:43.553Z,8.00
2022-09-02T03:59:47.545Z,12.00
2022-09-02T04:00:47.524Z,16.00
2022-09-02T04:02:40.704Z,20.00
2022-09-02T04:03:40.613Z,20.00
2022-09-02T04:05:45.006Z,28.00
2022-09-02T04:06:44.575Z,32.00
2022-09-02T04:08:48.543Z,40.00
2022-09-02T04:09:48.533Z,44.00
2022-09-02T04:11:52.540Z,56.00
2022-09-02T04:12:52.520Z,64.00
2022-09-02T04:14:45.434Z,76.00
2022-09-02T04:15:45.448Z,80.00
2022-09-02T04:17:49.425Z,100.00
2022-09-02T04:18:49.416Z,108.00
2022-09-02T04:20:53.433Z,128.00
2022-09-02T04:21:53.417Z,140.00
2022-09-02T04:23:46.622Z,168.00
2022-09-02T04:24:46.604Z,180.00
2022-09-02T04:26:50.615Z,220.00
2022-09-02T04:27:50.601Z,240.00
2022-09-02T04:29:43.703Z,288.00
2022-09-02T04:30:43.688Z,316.00
2022-09-02T04:32:47.681Z,372.00
2022-09-02T04:33:47.659Z,404.00
2022-09-02T04:35:51.660Z,480.00
2022-09-02T04:36:51.645Z,520.00
2022-09-02T04:38:55.629Z,608.00
2022-09-02T04:39:55.614Z,656.00
2022-09-02T04:41:59.658Z,768.00
2022-09-02T04:42:59.595Z,812.00
2022-09-02T04:44:52.511Z,904.00
2022-09-02T04:45:52.520Z,936.00
2022-09-02T04:47:56.475Z,1012.00
2022-09-02T04:48:56.466Z,1044.00
2022-09-02T04:51:00.455Z,1108.00
2022-09-02T04:52:00.441Z,1124.00
2022-09-02T04:54:04.419Z,1160.00
2022-09-02T04:55:04.403Z,1188.00
2022-09-02T04:57:08.415Z,1288.00
2022-09-02T04:58:08.383Z,1340.00
2022-09-02T05:00:12.406Z,1404.00
2022-09-02T05:01:12.423Z,1428.00
2022-09-02T05:03:16.379Z,1368.00
2022-09-02T05:04:16.374Z,1336.00
2022-09-02T05:06:20.416Z,1404.00
2022-09-02T05:07:20.359Z,1432.00
2022-09-02T05:09:24.341Z,1572.00
2022-09-02T05:10:24.324Z,1740.00
2022-09-02T05:12:17.454Z,1908.00
2022-09-02T05:13:17.440Z,1964.00
2022-09-02T05:15:21.400Z,2332.00
2022-09-02T05:16:21.413Z,2516.00
2022-09-02T05:18:14.616Z,2972.00
2022-09-02T05:19:14.766Z,3096.00
2022-09-02T05:21:18.610Z,3284.00
2022-09-02T05:22:18.597Z,3192.00
2022-09-02T05:24:11.529Z,3124.00
2022-09-02T05:25:11.510Z,3420.00
2022-09-02T05:27:04.606Z,3740.00
2022-09-02T05:28:04.598Z,3620.00
2022-09-02T05:30:08.589Z,6344.00
2022-09-02T05:31:08.591Z,5956.00
2022-09-02T05:33:14.616Z,6584.00
2022-09-02T05:34:12.540Z,6956.00
2022-09-02T05:36:16.516Z,7316.00
2022-09-02T05:37:16.503Z,7420.00
2022-09-02T05:39:20.514Z,7760.00
2022-09-02T05:40:22.718Z,8060.00
2022-09-02T05:42:24.479Z,8460.00
2022-09-02T05:43:24.470Z,8692.00
2022-09-02T05:45:28.476Z,8692.00
2022-09-02T05:46:28.548Z,9192.00
2022-09-02T05:48:32.458Z,9740.00
2022-09-02T05:49:32.446Z,7528.00
2022-09-02T05:51:25.620Z,6500.00
2022-09-02T05:52:25.612Z,7476.00
2022-09-02T05:54:18.535Z,4136.00
2022-09-02T05:55:18.525Z,3424.00
2022-09-02T05:56:18.518Z,3564.00
2022-09-02T05:57:18.512Z,3916.00
2022-09-02T05:58:18.509Z,5604.00
2022-09-02T05:59:18.505Z,7140.00
2022-09-02T06:00:18.499Z,9988.00
2022-09-02T06:01:18.489Z,11988.00
2022-09-02T06:02:18.603Z,10092.00
2022-09-02T06:03:18.663Z,6036.00
2022-09-02T06:04:18.478Z,4656.00
2022-09-02T06:05:18.471Z,4740.00
2022-09-02T06:06:18.466Z,5016.00
2022-09-02T06:07:18.463Z,5348.00
2022-09-02T06:08:18.455Z,5560.00
2022-09-02T06:09:18.454Z,5596.00
2022-09-02T06:10:18.447Z,5656.00
2022-09-02T06:11:18.441Z,5372.00
2022-09-02T06:12:18.435Z,5264.00
2022-09-02T06:13:18.492Z,5508.00
2022-09-02T06:14:18.429Z,5160.00
2022-09-02T06:15:18.416Z,4792.00
2022-09-02T06:16:18.478Z,4624.00
2022-09-02T06:17:18.409Z,4604.00
2022-09-02T06:18:18.406Z,4656.00
2022-09-02T06:19:20.381Z,4728.00
2022-09-02T06:20:18.394Z,4688.00
2022-09-02T06:21:18.392Z,4576.00
2022-09-02T06:22:18.383Z,4516.00
2022-09-02T06:23:18.424Z,4516.00
2022-09-02T06:24:18.372Z,4544.00
2022-09-02T06:25:18.365Z,4700.00
2022-09-02T06:26:18.362Z,7768.00
2022-09-02T06:27:18.356Z,11160.00
2022-09-02T06:28:18.353Z,4616.00
2022-09-02T06:29:18.346Z,4444.00
2022-09-02T06:30:18.346Z,4348.00
2022-09-02T06:31:18.367Z,4400.00
2022-09-02T06:32:18.332Z,4448.00
2022-09-02T06:33:18.349Z,4508.00
2022-09-02T06:34:18.321Z,4536.00
2022-09-02T06:35:18.315Z,4540.00
2022-09-02T06:36:18.310Z,4596.00
2022-09-02T06:37:18.303Z,4676.00
2022-09-02T06:38:18.298Z,4756.00
2022-09-02T06:39:18.292Z,4772.00
2022-09-02T06:40:18.308Z,4812.00
2022-09-02T06:41:18.282Z,4924.00
2022-09-02T06:42:18.277Z,5136.00
2022-09-02T06:43:18.296Z,5384.00
2022-09-02T06:44:18.266Z,5804.00
2022-09-02T06:45:18.260Z,6508.00
2022-09-02T06:46:18.315Z,7520.00
2022-09-02T06:47:18.249Z,11052.00
2022-09-02T06:48:18.246Z,8792.00
2022-09-02T06:49:18.239Z,8388.00
2022-09-02T06:50:18.233Z,8688.00
2022-09-02T06:51:18.228Z,9688.00
2022-09-02T06:52:18.225Z,14984.00
2022-09-02T06:53:18.258Z,16320.00
2022-09-02T06:54:18.214Z,23968.00
2022-09-02T06:55:18.247Z,27648.00
2022-09-02T06:56:18.203Z,26560.00
2022-09-02T06:57:18.199Z,25024.00
2022-09-02T06:58:18.191Z,34912.00
2022-09-02T06:59:18.194Z,33248.00
2022-09-02T07:00:18.184Z,32192.00
2022-09-02T07:01:18.287Z,32256.00
2022-09-02T07:02:18.197Z,30400.00
2022-09-02T07:03:18.245Z,31072.00
2022-09-02T07:04:18.171Z,32544.00
2022-09-02T07:05:18.165Z,34496.00
2022-09-02T07:06:18.162Z,33536.00
2022-09-02T07:07:18.158Z,32320.00
2022-09-02T07:08:18.156Z,34496.00
2022-09-02T07:09:18.154Z,32416.00
2022-09-02T07:10:18.151Z,35360.00
2022-09-02T07:11:18.150Z,37504.00
2022-09-02T07:12:18.148Z,21120.00
2022-09-02T07:13:18.215Z,5872.00
2022-09-02T07:14:18.143Z,6112.00
2022-09-02T07:15:18.140Z,6600.00
2022-09-02T07:16:26.505Z,12080.00
2022-09-02T07:17:18.134Z,31296.00
2022-09-02T07:18:18.134Z,34752.00
2022-09-02T07:19:20.633Z,21408.00
2022-09-02T07:20:18.128Z,33024.00
2022-09-02T07:21:18.127Z,23328.00
2022-09-02T07:22:18.894Z,30432.00
2022-09-02T07:23:18.146Z,24096.00
2022-09-02T07:24:18.120Z,12308.00
2022-09-02T07:25:18.114Z,6204.00
2022-09-02T07:26:18.116Z,8376.00
2022-09-02T07:27:18.112Z,16416.00
2022-09-02T07:28:18.110Z,7036.00
2022-09-02T07:29:18.107Z,4832.00
2022-09-02T07:30:18.107Z,4576.00
2022-09-02T07:31:18.137Z,4308.00
2022-09-02T07:32:18.101Z,4052.00
2022-09-02T07:33:18.112Z,3840.00
2022-09-02T07:34:18.095Z,3704.00
2022-09-02T07:35:18.093Z,3592.00
2022-09-02T07:36:18.089Z,3484.00
2022-09-02T07:37:18.088Z,3372.00
2022-09-02T07:38:18.083Z,3268.00
2022-09-02T07:39:18.079Z,3188.00
2022-09-02T07:40:18.150Z,3140.00
2022-09-02T07:41:18.072Z,3136.00
2022-09-02T07:42:18.110Z,3120.00
2022-09-02T07:43:18.103Z,3132.00
2022-09-02T07:44:18.059Z,3156.00
2022-09-02T07:45:18.055Z,3188.00
2022-09-02T07:46:18.168Z,3168.00
2022-09-02T07:47:18.049Z,3092.00
2022-09-02T07:48:18.117Z,3024.00
2022-09-02T07:49:22.057Z,2972.00
2022-09-02T07:50:20.827Z,2916.00
2022-09-02T07:51:18.035Z,2884.00
2022-09-02T07:52:18.029Z,2856.00
2022-09-02T07:53:18.072Z,2844.00
2022-09-02T07:54:18.021Z,2828.00
2022-09-02T07:55:18.018Z,2816.00
2022-09-02T07:56:18.017Z,2812.00
2022-09-02T07:57:18.009Z,2816.00
2022-09-02T07:58:18.006Z,2860.00
2022-09-02T07:59:18.002Z,2780.00
2022-09-02T08:00:17.999Z,2736.00
2022-09-02T08:01:23.143Z,2660.00
2022-09-02T08:02:18.049Z,2636.00
2022-09-02T08:03:17.984Z,2620.00
2022-09-02T08:04:17.981Z,2600.00
2022-09-02T08:05:17.974Z,2576.00
2022-09-02T08:06:17.975Z,2572.00
2022-09-02T08:07:17.967Z,2572.00
2022-09-02T08:08:17.964Z,2572.00
2022-09-02T08:09:17.960Z,2588.00
2022-09-02T08:10:17.955Z,2592.00
2022-09-02T08:11:17.951Z,2588.00
2022-09-02T08:12:20.235Z,2592.00
2022-09-02T08:13:17.955Z,2584.00
2022-09-02T08:14:17.942Z,2588.00
2022-09-02T08:15:17.935Z,2592.00
2022-09-02T08:16:17.958Z,2588.00
2022-09-02T08:17:17.928Z,2588.00
2022-09-02T08:18:21.261Z,2580.00
2022-09-02T08:19:17.921Z,2580.00
2022-09-02T08:20:17.917Z,2592.00
2022-09-02T08:21:17.911Z,2596.00
2022-09-02T08:22:17.911Z,2600.00
2022-09-02T08:23:35.661Z,2604.00
2022-09-02T08:24:17.906Z,2588.00
2022-09-02T08:25:17.901Z,2572.00
2022-09-02T08:26:17.893Z,2560.00
2022-09-02T08:27:17.889Z,2552.00
2022-09-02T08:28:17.913Z,2544.00
2022-09-02T08:29:17.882Z,2544.00
2022-09-02T08:30:17.880Z,2540.00
2022-09-02T08:31:17.947Z,2528.00
2022-09-02T08:32:17.876Z,2524.00
2022-09-02T08:33:17.891Z,2528.00
2022-09-02T08:34:17.864Z,2532.00
2022-09-02T08:35:17.859Z,2536.00
2022-09-02T08:36:17.861Z,2524.00
2022-09-02T08:37:17.851Z,2500.00
2022-09-02T08:38:17.875Z,2476.00
2022-09-02T08:39:17.887Z,2460.00
2022-09-02T08:40:17.866Z,2456.00
2022-09-02T08:41:17.837Z,2456.00
2022-09-02T08:42:17.839Z,2460.00
2022-09-02T08:43:17.888Z,2460.00
2022-09-02T08:44:17.835Z,2444.00
2022-09-02T08:45:17.833Z,2428.00
2022-09-02T08:46:17.895Z,2424.00
2022-09-02T08:47:17.817Z,2420.00
2022-09-02T08:48:17.812Z,2424.00
2022-09-02T08:49:17.809Z,2424.00
2022-09-02T08:50:17.809Z,2424.00
2022-09-02T08:51:17.803Z,2416.00
2022-09-02T08:52:17.986Z,2400.00
2022-09-02T08:53:17.890Z,2396.00
2022-09-02T08:54:17.795Z,2400.00
2022-09-02T08:55:17.789Z,2412.00
2022-09-02T08:56:17.785Z,2420.00
2022-09-02T08:57:17.785Z,2412.00
2022-09-02T08:58:17.935Z,2416.00
2022-09-02T08:59:17.777Z,2420.00
2022-09-02T09:00:17.786Z,2408.00
2022-09-02T09:01:17.835Z,2384.00
2022-09-02T09:02:18.111Z,2380.00
2022-09-02T09:03:17.764Z,2392.00
2022-09-02T09:04:17.759Z,2400.00
2022-09-02T09:05:17.754Z,2308.00
2022-09-02T09:06:17.756Z,2272.00
2022-09-02T09:07:17.749Z,2272.00
2022-09-02T09:08:21.474Z,2280.00
2022-09-02T09:09:17.742Z,2340.00
2022-09-02T09:10:17.740Z,2368.00
2022-09-02T09:11:17.738Z,2404.00
2022-09-02T09:12:17.734Z,2420.00
2022-09-02T09:13:17.728Z,2400.00
2022-09-02T09:14:17.726Z,2408.00
2022-09-02T09:15:17.720Z,2452.00
2022-09-02T09:16:17.742Z,2592.00
2022-09-02T09:17:17.715Z,2528.00
2022-09-02T09:18:17.713Z,2404.00
2022-09-02T09:19:17.710Z,2388.00
2022-09-02T09:20:17.755Z,2368.00
2022-09-02T09:21:17.741Z,2364.00
2022-09-02T09:22:17.701Z,2364.00
2022-09-02T09:23:21.419Z,2372.00
2022-09-02T09:24:17.695Z,2388.00
2022-09-02T09:25:17.691Z,2444.00
2022-09-02T09:26:17.698Z,2476.00
2022-09-02T09:27:17.686Z,2468.00
2022-09-02T09:28:17.691Z,2444.00
2022-09-02T09:29:17.678Z,2436.00
2022-09-02T09:30:17.675Z,2524.00
2022-09-02T09:31:17.716Z,2624.00
2022-09-02T09:32:17.669Z,2740.00
2022-09-02T09:33:17.734Z,2900.00
2022-09-02T09:34:17.663Z,3028.00
2022-09-02T09:35:17.660Z,3152.00
2022-09-02T09:36:17.658Z,3320.00
2022-09-02T09:37:17.654Z,3748.00
2022-09-02T09:38:17.651Z,3884.00
2022-09-02T09:39:17.653Z,3356.00
2022-09-02T09:40:17.715Z,3168.00
2022-09-02T09:41:17.642Z,3192.00
2022-09-02T09:42:17.638Z,3244.00
2022-09-02T09:43:17.638Z,3120.00
2022-09-02T09:44:17.635Z,2928.00
2022-09-02T09:45:17.630Z,2824.00
2022-09-02T09:46:17.734Z,2976.00
2022-09-02T09:47:18.236Z,3352.00
2022-09-02T09:48:17.625Z,3656.00
2022-09-02T09:49:17.621Z,3692.00
2022-09-02T09:50:17.724Z,3568.00
2022-09-02T09:51:17.614Z,3680.00
2022-09-02T09:52:17.609Z,3800.00
2022-09-02T09:53:17.680Z,3912.00
2022-09-02T09:54:17.614Z,3580.00
2022-09-02T09:55:22.868Z,3140.00
2022-09-02T09:56:17.604Z,2800.00
2022-09-02T09:57:17.605Z,2664.00
2022-09-02T09:58:17.597Z,2652.00
2022-09-02T09:59:17.595Z,2700.00
2022-09-02T10:00:17.641Z,2868.00
2022-09-02T10:01:17.654Z,3184.00
2022-09-02T10:02:17.621Z,3628.00
2022-09-02T10:03:17.584Z,4052.00
2022-09-02T10:04:39.453Z,3960.00
2022-09-02T10:05:17.578Z,4060.00
2022-09-02T10:06:17.578Z,4072.00
2022-09-02T10:07:17.575Z,3888.00
2022-09-02T10:08:17.573Z,3444.00
2022-09-02T10:09:17.570Z,3000.00
2022-09-02T10:10:17.565Z,2828.00
2022-09-02T10:11:17.593Z,2820.00
2022-09-02T10:12:17.565Z,2968.00
2022-09-02T10:14:17.560Z,3196.00
2022-09-02T10:15:17.557Z,3392.00
2022-09-02T10:16:17.580Z,3508.00
2022-09-02T10:17:17.552Z,3372.00
2022-09-02T10:18:17.554Z,2864.00
2022-09-02T10:19:17.547Z,2544.00
2022-09-02T10:20:17.547Z,2516.00
2022-09-02T10:21:17.543Z,2444.00
2022-09-02T10:22:17.542Z,2668.00
2022-09-02T10:23:17.541Z,2764.00
2022-09-02T10:24:17.547Z,2512.00
2022-09-02T10:25:17.533Z,2524.00
2022-09-02T10:26:17.561Z,2664.00
2022-09-02T10:27:17.529Z,2888.00
2022-09-02T10:28:17.527Z,2888.00
2022-09-02T10:29:17.522Z,2908.00
2022-09-02T10:30:17.522Z,2868.00
2022-09-02T10:31:17.554Z,2884.00
2022-09-02T10:32:17.529Z,3120.00
2022-09-02T10:33:17.516Z,3476.00
2022-09-02T10:34:17.515Z,3900.00
2022-09-02T10:35:17.509Z,4144.00
2022-09-02T10:36:22.074Z,4500.00
2022-09-02T10:37:17.506Z,4544.00
2022-09-02T10:38:17.507Z,4364.00
2022-09-02T10:39:17.503Z,4704.00
2022-09-02T10:40:17.681Z,5132.00
2022-09-02T10:41:17.497Z,5164.00
2022-09-02T10:42:17.495Z,5068.00
2022-09-02T10:43:17.494Z,4232.00
2022-09-02T10:44:17.490Z,3600.00
2022-09-02T10:45:17.487Z,3512.00
2022-09-02T10:46:17.512Z,3816.00
2022-09-02T10:47:17.485Z,4036.00
2022-09-02T10:48:17.482Z,4004.00
2022-09-02T10:49:17.484Z,4036.00
2022-09-02T10:50:17.479Z,4596.00
2022-09-02T10:51:17.474Z,4856.00
2022-09-02T10:53:17.470Z,5212.00
2022-09-02T10:54:17.468Z,5092.00
2022-09-02T10:55:17.468Z,4752.00
2022-09-02T10:56:17.476Z,4800.00
2022-09-02T10:57:17.465Z,5112.00
2022-09-02T10:58:17.464Z,5264.00
2022-09-02T10:59:17.461Z,5492.00
2022-09-02T11:00:17.460Z,5636.00
2022-09-02T11:01:17.514Z,5612.00
2022-09-02T11:02:17.453Z,4764.00
2022-09-02T11:03:17.471Z,4148.00
2022-09-02T11:04:17.450Z,3932.00
2022-09-02T11:05:17.448Z,3692.00
2022-09-02T11:06:17.447Z,3688.00
2022-09-02T11:07:17.440Z,3680.00
2022-09-02T11:08:17.441Z,3620.00
2022-09-02T11:09:17.502Z,3632.00
2022-09-02T11:10:17.445Z,3588.00
2022-09-02T11:11:17.438Z,3512.00
2022-09-02T11:12:17.436Z,3136.00
2022-09-02T11:13:17.429Z,3300.00
2022-09-02T11:14:17.434Z,3532.00
2022-09-02T11:15:17.431Z,3880.00
2022-09-02T11:16:17.557Z,3656.00
2022-09-02T11:17:17.426Z,3452.00
2022-09-02T11:18:17.437Z,3140.00
2022-09-02T11:19:17.425Z,2872.00
2022-09-02T11:20:17.424Z,3120.00
2022-09-02T11:21:17.419Z,3124.00
2022-09-02T11:22:17.420Z,3580.00
2022-09-02T11:23:17.418Z,3716.00
2022-09-02T11:24:17.419Z,3728.00
2022-09-02T11:25:17.413Z,3708.00
2022-09-02T11:26:17.410Z,3732.00
2022-09-02T11:27:26.283Z,3912.00
2022-09-02T11:28:17.408Z,4140.00
2022-09-02T11:29:17.411Z,4156.00
2022-09-02T11:30:17.402Z,4124.00
2022-09-02T11:31:17.402Z,4228.00
2022-09-02T11:32:17.401Z,4292.00
2022-09-02T11:33:17.458Z,4552.00
2022-09-02T11:34:17.398Z,4736.00
2022-09-02T11:35:17.403Z,5024.00
2022-09-02T11:36:17.398Z,5324.00
2022-09-02T11:37:19.815Z,5528.00
2022-09-02T11:38:17.393Z,5080.00
2022-09-02T11:39:25.774Z,4940.00
2022-09-02T11:40:33.855Z,4964.00
2022-09-02T11:41:35.967Z,5112.00
2022-09-02T11:42:17.483Z,4920.00
2022-09-02T11:43:17.382Z,4464.00
2022-09-02T11:44:17.384Z,4464.00
2022-09-02T11:45:17.424Z,4640.00
2022-09-02T11:46:17.428Z,4908.00
2022-09-02T11:47:17.375Z,5032.00
2022-09-02T11:48:17.373Z,4940.00
2022-09-02T11:49:17.372Z,4772.00
2022-09-02T11:50:17.371Z,4668.00
2022-09-02T11:51:17.410Z,4652.00
2022-09-02T11:52:17.386Z,4612.00
2022-09-02T11:53:17.375Z,4516.00
2022-09-02T11:54:17.364Z,4332.00
2022-09-02T11:55:17.363Z,4144.00
2022-09-02T11:56:17.362Z,3956.00
2022-09-02T11:57:17.359Z,3900.00
2022-09-02T11:58:17.360Z,4356.00
2022-09-02T11:59:17.357Z,5068.00
2022-09-02T12:00:17.355Z,5688.00
2022-09-02T12:01:19.095Z,6140.00
2022-09-02T12:02:17.352Z,6604.00
2022-09-02T12:03:40.935Z,6964.00
2022-09-02T12:05:17.434Z,7032.00
2022-09-02T12:06:17.420Z,6900.00
2022-09-02T12:07:17.342Z,6624.00
2022-09-02T12:08:17.340Z,5976.00
2022-09-02T12:09:17.338Z,5888.00
2022-09-02T12:10:17.338Z,5920.00
2022-09-02T12:11:17.336Z,5468.00
2022-09-02T12:12:17.335Z,6012.00
2022-09-02T12:13:17.332Z,5708.00
2022-09-02T12:14:17.326Z,5648.00
2022-09-02T12:15:17.330Z,5596.00
2022-09-02T12:16:17.355Z,5476.00
2022-09-02T12:17:17.327Z,5320.00
2022-09-02T12:18:17.325Z,4884.00
2022-09-02T12:19:17.324Z,4368.00
2022-09-02T12:20:17.326Z,3936.00
2022-09-02T12:21:19.425Z,3664.00
2022-09-02T12:22:17.320Z,3480.00
2022-09-02T12:23:17.317Z,3448.00
2022-09-02T12:24:17.317Z,3716.00
2022-09-02T12:25:17.313Z,3992.00
2022-09-02T12:26:17.310Z,4272.00
2022-09-02T12:27:17.313Z,4368.00
2022-09-02T12:28:21.492Z,3936.00
2022-09-02T12:29:17.309Z,3984.00
2022-09-02T12:30:17.307Z,4180.00
2022-09-02T12:31:17.395Z,4396.00
2022-09-02T12:32:17.304Z,4520.00
2022-09-02T12:33:17.311Z,4564.00
2022-09-02T12:34:17.300Z,4668.00
2022-09-02T12:35:17.294Z,4792.00
2022-09-02T12:36:17.300Z,5016.00
2022-09-02T12:37:17.296Z,5292.00
2022-09-02T12:38:17.333Z,5580.00
2022-09-02T12:39:17.292Z,5940.00
2022-09-02T12:40:17.370Z,6596.00
2022-09-02T12:41:17.287Z,6900.00
2022-09-02T12:42:17.288Z,7040.00
2022-09-02T12:43:17.286Z,7028.00
2022-09-02T12:44:17.283Z,6904.00
2022-09-02T12:45:17.281Z,6660.00
2022-09-02T12:46:17.339Z,6316.00
2022-09-02T12:47:17.279Z,5448.00
2022-09-02T12:48:17.279Z,5276.00
2022-09-02T12:49:17.276Z,5236.00
2022-09-02T12:50:17.273Z,5576.00
2022-09-02T12:51:17.272Z,5040.00
2022-09-02T12:52:17.270Z,4888.00
2022-09-02T12:53:20.936Z,4792.00
2022-09-02T12:54:17.266Z,4732.00
2022-09-02T12:55:17.266Z,4724.00
2022-09-02T12:56:17.265Z,4804.00
2022-09-02T12:57:17.262Z,4956.00
2022-09-02T12:58:17.263Z,5064.00
2022-09-02T12:59:17.260Z,5164.00
2022-09-02T13:00:17.255Z,5716.00
2022-09-02T13:01:17.292Z,5512.00
2022-09-02T13:02:17.260Z,4888.00
2022-09-02T13:03:17.286Z,4656.00
2022-09-02T13:04:17.253Z,4536.00
2022-09-02T13:05:17.263Z,4408.00
2022-09-02T13:06:17.249Z,4216.00
2022-09-02T13:07:17.250Z,3944.00
2022-09-02T13:08:17.247Z,3648.00
2022-09-02T13:09:17.287Z,3252.00
2022-09-02T13:10:17.244Z,2876.00
2022-09-02T13:11:17.242Z,2628.00
2022-09-02T13:12:17.240Z,2564.00
2022-09-02T13:13:17.237Z,2552.00
2022-09-02T13:14:17.238Z,2516.00
2022-09-02T13:15:20.176Z,2476.00
2022-09-02T13:16:19.105Z,2376.00
2022-09-02T13:17:35.514Z,2220.00
2022-09-02T13:18:17.231Z,2048.00
2022-09-02T13:19:17.234Z,1972.00
2022-09-02T13:20:17.230Z,1956.00
2022-09-02T13:21:17.225Z,1972.00
2022-09-02T13:22:17.225Z,2012.00
2022-09-02T13:23:17.227Z,2028.00
2022-09-02T13:24:17.223Z,2012.00
2022-09-02T13:25:17.276Z,1996.00
2022-09-02T13:26:32.859Z,2012.00
2022-09-02T13:27:17.216Z,2048.00
2022-09-02T13:28:17.214Z,2092.00
2022-09-02T13:29:17.213Z,2148.00
2022-09-02T13:30:17.210Z,2220.00
2022-09-02T13:31:17.265Z,2340.00
2022-09-02T13:32:17.208Z,2484.00
2022-09-02T13:33:17.206Z,2840.00
2022-09-02T13:34:17.206Z,3064.00
2022-09-02T13:35:21.469Z,3448.00
2022-09-02T13:36:17.203Z,3764.00
2022-09-02T13:37:17.202Z,4148.00
2022-09-02T13:38:18.622Z,4392.00
2022-09-02T13:39:17.197Z,4492.00
2022-09-02T13:40:17.197Z,4832.00
2022-09-02T13:41:17.196Z,4752.00
2022-09-02T13:42:17.194Z,4540.00
2022-09-02T13:43:17.191Z,4568.00
2022-09-02T13:44:17.192Z,4268.00
2022-09-02T13:45:17.191Z,4184.00
2022-09-02T13:46:17.200Z,4100.00
2022-09-02T13:47:17.208Z,4184.00
2022-09-02T13:48:17.185Z,4240.00
2022-09-02T13:49:17.184Z,4036.00
2022-09-02T13:50:17.183Z,3848.00
2022-09-02T13:51:17.181Z,3656.00
2022-09-02T13:52:17.248Z,3516.00
2022-09-02T13:53:45.693Z,3356.00
2022-09-02T13:54:23.157Z,3212.00